Airport View

Enter AWOS ICAO identifier for current METAR.

ex. KFNL

KDMW 080345Z AUTO 13006KT 10SM CLR 26/23 A3004 RMK AO2

8 Jul 2020 03:51

Frequency: 121.25

Phone: 410-876-1281

Other Area AWOS: KTHV - KFDK - KDMH - KGAI

TAF KBWI 072344Z 0800/0906 17006KT P6SM VCTS FEW025 SCT040CB BKN250 FM080100 15005KT P6SM FEW040 SCT250 FM081200 20004KT P6SM SCT040 BKN110 FM081700 15006KT P6SM SCT040